Weather observations for the past three days for
Sparta Upper Cumberland Regional Airport
| Date | Time (cdt) | Wind (mph) | Vis. (mi.) | Weather | Sky Cond. | Temperature (ºF) | Relative Humidity | Wind Chill (°F) | Heat Index (°F) | Pressure | Precipitation (in) | ||||||
|---|---|---|---|---|---|---|---|---|---|---|---|---|---|---|---|---|---|
| Air | Dwpt | 6 hour | altimeter (in) | sea level (mb) | 1 hr | 3 hr | 6 hr | ||||||||||
| Max. | Min. | ||||||||||||||||
| 07 | 15:55 | N 12 | 10.00 | Fair | CLR | 64.4 | 42.8 | 46% | 29.94 | 0.0 | |||||||
| 07 | 15:35 | NW 10 | 10.00 | Fair | CLR | 64.4 | 42.8 | 46% | 29.95 | 0.0 | |||||||
| 07 | 15:15 | Vrbl 5 G 13 | 10.00 | A Few Clouds | FEW050 | 64.4 | 42.8 | 46% | 29.95 | 0.0 | |||||||
| 07 | 14:55 | N 9 | 10.00 | Partly Cloudy | SCT050 | 64.4 | 44.6 | 49% | 29.95 | 0.0 | |||||||
| 07 | 14:35 | Vrbl 5 | 10.00 | Fair | CLR | 64.4 | 42.8 | 46% | 29.95 | 0.0 | |||||||
| 07 | 14:15 | Vrbl 5 G 13 | 10.00 | A Few Clouds | FEW046 | 64.4 | 41 | 43% | 29.96 | 0.0 | |||||||
| 07 | 13:55 | Vrbl 7 G 14 | 10.00 | Partly Cloudy | SCT044 | 62.6 | 42.8 | 49% | 29.96 | 0.0 | |||||||
| 07 | 13:35 | NW 10 | 10.00 | Mostly Cloudy | BKN044 BKN055 | 62.6 | 46.4 | 56% | 29.96 | 0.0 | |||||||
| 07 | 13:15 | N 8 | 10.00 | Mostly Cloudy | BKN044 BKN050 | 60.8 | 44.6 | 55% | 29.97 | 0.0 | |||||||
| 07 | 12:55 | N 6 G 16 | 10.00 | Mostly Cloudy | SCT042 BKN050 | 60.8 | 44.6 | 55% | 29.97 | 0.0 | |||||||
| 07 | 12:35 | NW 9 G 15 | 10.00 | Partly Cloudy | SCT042 | 62.6 | 46.4 | 56% | 29.97 | 0.0 | |||||||
| 07 | 12:15 | Vrbl 7 G 15 | 10.00 | Partly Cloudy | SCT041 | 60.8 | 44.6 | 55% | 29.97 | 0.0 | |||||||
| 07 | 11:55 | Vrbl 6 G 15 | 10.00 | A Few Clouds | FEW042 | 62.6 | 46.4 | 56% | 29.98 | 0.0 | |||||||
| 07 | 11:35 | NW 8 G 15 | 10.00 | Fair | CLR | 60.8 | 44.6 | 55% | 29.98 | 0.0 | |||||||
| 07 | 11:15 | Vrbl 6 G 14 | 10.00 | Fair | CLR | 60.8 | 46.4 | 59% | 29.98 | 0.0 | |||||||
| 07 | 10:55 | NW 8 G 16 | 10.00 | Fair | CLR | 60.8 | 44.6 | 55% | 29.99 | 0.0 | |||||||
| 07 | 10:35 | N 9 | 10.00 | Partly Cloudy | SCT032 | 59 | 50 | 72% | 29.98 | 0.0 | |||||||
| 07 | 10:15 | N 8 G 14 | 10.00 | Partly Cloudy | SCT032 | 59 | 50 | 72% | 29.98 | 0.0 | |||||||
| 07 | 09:55 | NE 9 | 10.00 | Partly Cloudy | FEW031 SCT050 | 59 | 48.2 | 68% | 29.98 | 0.0 | |||||||
| 07 | 09:35 | Vrbl 3 | 10.00 | Mostly Cloudy | BKN049 | 57.2 | 51.8 | 82% | 29.98 | 0.0 | |||||||
| 07 | 09:15 | Vrbl 5 G 12 | 10.00 | Overcast | OVC048 | 55.4 | 50 | 82% | 29.98 | 0.0 | |||||||
| 07 | 08:55 | N 8 | 10.00 | Overcast | OVC048 | 53.6 | 51.8 | 94% | 29.97 | 0.0 | |||||||
| 07 | 08:35 | N 9 | 10.00 | Overcast | BKN045 OVC050 | 53.6 | 51.8 | 94% | 29.97 | 0.0 | |||||||
| 07 | 08:15 | Vrbl 5 | 10.00 | Overcast | OVC044 | 51.8 | 51.8 | 100% | 29.97 | 0.0 | |||||||
| 07 | 07:55 | N 6 | 10.00 | Overcast | OVC043 | 51.8 | 51.8 | 100% | 29.97 | 0.0 | |||||||
| 07 | 07:35 | NE 5 | 10.00 | Overcast | OVC043 | 51.8 | 51.8 | 100% | 29.97 | 0.0 | |||||||
| 07 | 07:15 | NE 6 | 10.00 | Overcast | OVC042 | 51.8 | 51.8 | 100% | 29.96 | 0.0 | |||||||
| 07 | 06:55 | NE 5 | 10.00 | Overcast | OVC042 | 51.8 | 51.8 | 100% | 29.96 | 0.0 | |||||||
| 07 | 06:35 | Vrbl 3 | 10.00 | Overcast | OVC042 | 51.8 | 51.8 | 100% | 29.95 | 0.0 | |||||||
| 07 | 06:15 | N 3 | 10.00 | Overcast | OVC041 | 51.8 | 51.8 | 100% | 29.95 | 0.0 | |||||||
| 07 | 05:55 | Calm | 10.00 | Overcast | OVC040 | 51.8 | 51.8 | 100% | 29.93 | 0.0 | |||||||
| 07 | 05:35 | Calm | 10.00 | Overcast | OVC039 | 51.8 | 51.8 | 100% | 29.93 | 0.0 | |||||||
| 07 | 04:55 | N 5 | 10.00 | Overcast | OVC038 | 53.6 | 53.6 | 100% | 29.92 | 0.0 | |||||||
| 07 | 04:35 | Calm | 10.00 | Overcast | OVC036 | 53.6 | 53.6 | 100% | 29.93 | 0.0 | |||||||
| 07 | 04:15 | Calm | 10.00 | Overcast | OVC036 | 53.6 | 53.6 | 100% | 29.93 | 0.0 | |||||||
| 07 | 03:55 | N 3 | 10.00 | Light Drizzle | FEW007 OVC036 | 53.6 | 53.6 | 100% | 29.93 | 0.0 | |||||||
| 07 | 03:35 | N 3 | 10.00 | Light Rain | SCT007 OVC035 | 53.6 | 53.6 | 100% | 29.93 | 0.0 | |||||||
| 07 | 03:15 | Vrbl 3 | 10.00 | Overcast | OVC034 | 53.6 | 53.6 | 100% | 29.93 | 0.0 | |||||||
| 07 | 02:55 | Vrbl 5 | 10.00 | Overcast | FEW011 OVC032 | 53.6 | 53.6 | 100% | 29.93 | 0.0 | |||||||
| 07 | 02:35 | Calm | 10.00 | Light Rain | FEW009 FEW013 OVC032 | 53.6 | 53.6 | 100% | 29.93 | 0.0 | |||||||
| 07 | 02:15 | Calm | 10.00 | Overcast | OVC032 | 53.6 | 53.6 | 100% | 29.94 | 0.0 | |||||||
| 07 | 01:55 | Calm | 10.00 | Overcast | FEW017 FEW023 OVC034 | 53.6 | 53.6 | 100% | 29.94 | 0.0 | |||||||
| 07 | 01:35 | Calm | 10.00 | Overcast | BKN017 BKN023 OVC120 | 53.6 | 53.6 | 100% | 29.93 | 0.0 | |||||||
| 07 | 01:15 | Calm | 10.00 | Overcast | SCT016 OVC032 | 53.6 | 53.6 | 100% | 29.94 | 0.0 | |||||||
| 07 | 00:55 | Calm | 10.00 | Overcast | OVC031 | 53.6 | 53.6 | 100% | 29.94 | 0.0 | |||||||
| 07 | 00:35 | Calm | 10.00 | Light Drizzle | OVC031 | 53.6 | 53.6 | 100% | 29.94 | 0.0 | |||||||
| 07 | 00:15 | NW 5 | 10.00 | Light Drizzle | OVC031 | 53.6 | 53.6 | 100% | 29.97 | 0.0 | |||||||
| 06 | 23:55 | Calm | 10.00 | Overcast | OVC028 | 53.6 | 53.6 | 100% | 29.96 | 0.0 | |||||||
| 06 | 23:35 | Calm | 10.00 | Mostly Cloudy | FEW009 SCT014 BKN021 | 53.6 | 53.6 | 100% | 29.96 | 0.0 | |||||||
| 06 | 23:15 | Calm | 10.00 | Overcast | BKN009 BKN014 OVC020 | 53.6 | 53.6 | 100% | 29.96 | 0.0 | |||||||
| 06 | 22:55 | Calm | 10.00 | Overcast | SCT008 BKN011 OVC018 | 53.6 | 53.6 | 100% | 29.96 | 0.0 | |||||||
| 06 | 22:35 | Vrbl 3 | 10.00 | Light Rain | SCT008 BKN014 OVC019 | 53.6 | 53.6 | 100% | 29.95 | 0.0 | |||||||
| 06 | 21:35 | Vrbl 5 | 10.00 | Overcast | BKN005 OVC010 | 55.4 | 55.4 | 100% | 29.96 | 0.0 | |||||||
| 06 | 21:15 | N 6 | 8.00 | Light Rain | SCT005 OVC011 | 55.4 | 55.4 | 100% | 29.96 | 0.0 | |||||||
| 06 | 20:55 | NW 5 | 10.00 | Overcast | OVC011 | 55.4 | 55.4 | 100% | 29.98 | 0.0 | |||||||
| 06 | 20:35 | NW 6 | 10.00 | Overcast | SCT009 BKN045 OVC090 | 55.4 | 55.4 | 100% | 29.95 | 0.0 | |||||||
| 06 | 20:15 | Calm | 10.00 | Overcast | BKN006 BKN009 OVC090 | 55.4 | 55.4 | 100% | 29.92 | 0.0 | |||||||
| 06 | 19:55 | Calm | 10.00 | Overcast | OVC005 | 55.4 | 55.4 | 100% | 29.92 | 0.0 | 0.01 | ||||||
| 06 | 19:35 | Calm | 10.00 | Overcast | OVC006 | 55.4 | 55.4 | 100% | 29.92 | 0.0 | |||||||
| 06 | 19:15 | NE 5 | 10.00 | Overcast | OVC008 | 55.4 | 55.4 | 100% | 29.93 | 0.0 | |||||||
| 06 | 18:55 | Calm | 6.00 | Light Rain Fog/Mist | OVC007 | 55.4 | 55.4 | 100% | 29.95 | 0.0 | |||||||
| 06 | 18:35 | NW 3 | 9.00 | Light Rain | OVC006 | 55.4 | 55.4 | 100% | 29.97 | 0.0 | |||||||
| 06 | 18:15 | Vrbl 6 | 9.00 | Mostly Cloudy | BKN006 BKN013 BKN020 | 55.4 | 55.4 | 100% | 29.93 | 0.0 | |||||||
| 06 | 17:55 | N 7 | 8.00 | Light Rain | FEW005 FEW008 BKN021 | 55.4 | 55.4 | 100% | 29.92 | 0.0 | 0.01 | ||||||
| 06 | 17:35 | Calm | 4.00 | Light Rain Fog/Mist | SCT007 BKN013 OVC022 | 55.4 | 55.4 | 100% | 29.94 | 0.0 | |||||||
| 06 | 17:15 | Vrbl 6 | 8.00 | Light Drizzle | OVC007 | 55.4 | 55.4 | 100% | 29.94 | 0.0 | |||||||
| 06 | 16:55 | NW 6 | 10.00 | Mostly Cloudy | BKN008 | 55.4 | 55.4 | 100% | 29.93 | 0.0 | |||||||
| 06 | 16:35 | Calm | 4.00 | Light Drizzle Fog/Mist | BKN007 OVC011 | 57.2 | 57.2 | 100% | 29.91 | 0.0 | |||||||
| 06 | 16:15 | Calm | 10.00 | Overcast | BKN006 OVC010 | 57.2 | 57.2 | 100% | 29.92 | 0.0 | |||||||
| 06 | 15:55 | Calm | 10.00 | Overcast | OVC005 | 57.2 | 57.2 | 100% | 29.91 | 0.0 | |||||||
| 06 | 15:35 | Vrbl 7 G 13 | 10.00 | Overcast | OVC004 | 57.2 | 57.2 | 100% | 29.91 | 0.0 | |||||||
| 06 | 15:15 | N 8 | 9.00 | Overcast | OVC004 | 59 | 59 | 100% | 29.89 | 0.0 | |||||||
| 06 | 14:55 | NW 8 | 10.00 | Overcast | OVC004 | 59 | 59 | 100% | 29.9 | 0.0 | |||||||
| 06 | 14:35 | Vrbl 5 | 9.00 | Overcast | OVC004 | 60.8 | 60.8 | 100% | 29.89 | 0.0 | |||||||
| 06 | 14:15 | NW 7 | 10.00 | Overcast | OVC004 | 60.8 | 60.8 | 100% | 29.92 | 0.0 | |||||||
| 06 | 13:55 | NW 3 | 10.00 | Overcast | OVC005 | 62.6 | 62.6 | 100% | 29.91 | 0.0 | |||||||
| 06 | 13:35 | Calm | 10.00 | Overcast | OVC006 | 62.6 | 62.6 | 100% | 29.91 | 0.0 | |||||||
| 06 | 13:15 | Calm | 10.00 | Overcast | OVC006 | 64.4 | 64.4 | 100% | 29.89 | 0.0 | |||||||
| 06 | 12:55 | Calm | 10.00 | Overcast | OVC005 | 62.6 | 62.6 | 100% | 29.91 | 0.0 | |||||||
| 06 | 12:35 | Calm | 10.00 | Overcast | OVC005 | 62.6 | 62.6 | 100% | 29.91 | 0.0 | |||||||
| 06 | 12:15 | Calm | 10.00 | Overcast | BKN006 OVC041 | 64.4 | 64.4 | 100% | 29.91 | 0.0 | |||||||
| 06 | 11:55 | Vrbl 6 | 10.00 | Overcast | BKN005 OVC041 | 64.4 | 64.4 | 100% | 29.91 | 0.0 | |||||||
| 06 | 11:35 | W 6 | 9.00 | Overcast | OVC004 | 62.6 | 62.6 | 100% | 29.9 | 0.0 | |||||||
| 06 | 11:15 | NW 10 | 9.00 | Overcast | BKN003 BKN010 OVC015 | 62.6 | 62.6 | 100% | 29.91 | 0.0 | |||||||
| 06 | 10:55 | Vrbl 5 | 10.00 | Overcast | BKN013 OVC017 | 68 | 68 | 100% | 29.89 | 0.0 | |||||||
| 06 | 10:35 | Vrbl 7 | 10.00 | Overcast | BKN012 BKN016 OVC023 | 68 | 68 | 100% | 29.88 | 0.0 | |||||||
| 06 | 10:15 | W 6 G 14 | 10.00 | Mostly Cloudy | SCT013 BKN022 BKN120 | 68 | 68 | 100% | 29.87 | 0.0 | |||||||
| 06 | 09:55 | S 7 G 17 | 10.00 | Partly Cloudy | FEW020 SCT110 | 66.2 | 66.2 | 100% | 29.86 | 0.0 | 0.02 | ||||||
| 06 | 09:35 | S 10 G 17 | 10.00 | Partly Cloudy | SCT018 | 64.4 | 64.4 | 100% | 29.85 | 0.0 | |||||||
| 06 | 09:15 | S 10 | 8.00 | Light Rain | FEW008 SCT015 SCT029 | 64.4 | 64.4 | 100% | 29.86 | 0.0 | |||||||
| 06 | 08:55 | Calm | 3.00 | Light Rain Fog/Mist | FEW011 SCT018 BKN027 | 64.4 | 64.4 | 100% | 29.86 | 0.0 | 0.05 | ||||||
| 06 | 08:35 | SW 9 | 5.00 | Light Rain Fog/Mist | FEW013 SCT021 BKN029 | 64.4 | 64.4 | 100% | 29.89 | 0.0 | |||||||
| 06 | 08:15 | SW 5 G 12 | 10.00 | Light Rain | FEW015 SCT050 BKN100 | 64.4 | 64.4 | 100% | 29.87 | 0.0 | |||||||
| 06 | 07:55 | SW 8 G 15 | 10.00 | Light Rain | FEW015 FEW050 FEW060 | 64.4 | 64.4 | 100% | 29.86 | 0.0 | |||||||
| 06 | 07:35 | S 12 G 18 | 10.00 | Partly Cloudy | FEW012 SCT016 SCT100 | 64.4 | 64.4 | 100% | 29.86 | 0.0 | |||||||
| 06 | 07:15 | S 14 G 20 | 10.00 | Mostly Cloudy | BKN011 | 64.4 | 64.4 | 100% | 29.84 | 0.0 | |||||||
| 06 | 06:55 | S 8 | 9.00 | Light Rain | BKN010 OVC014 | 64.4 | 64.4 | 100% | 29.83 | 0.0 | 0.08 | ||||||
| 06 | 06:35 | S 7 | 4.00 | Light Rain Fog/Mist | BKN011 OVC022 | 64.4 | 64.4 | 100% | 29.83 | 0.0 | |||||||
| 06 | 06:15 | Calm | 4.00 | Light Rain Fog/Mist | FEW010 BKN022 OVC034 | 64.4 | 64.4 | 100% | 29.83 | 0.0 | |||||||
| 06 | 05:55 | S 9 G 18 | 6.00 | Light Rain Fog/Mist | SCT028 BKN065 OVC100 | 64.4 | 64.4 | 100% | 29.82 | 0.0 | 0.06 | ||||||
| 06 | 05:35 | S 9 | 10.00 | Overcast | BKN026 BKN055 OVC090 | 64.4 | 64.4 | 100% | 29.81 | 0.0 | |||||||
| 06 | 05:15 | S 8 | 3.00 | Light Rain Fog/Mist | FEW004 BKN026 OVC043 | 64.4 | 64.4 | 100% | 29.81 | 0.0 | |||||||
| 06 | 04:55 | SW 6 G 14 | 4.00 | Rain Fog/Mist | SCT026 OVC032 | 66.2 | 66.2 | 100% | 29.82 | 0.0 | 0.04 | ||||||
| 06 | 04:35 | SW 14 | 6.00 | Light Rain Fog/Mist | OVC032 | 68 | 64.4 | 88% | 29.8 | 0.0 | |||||||
| 06 | 04:15 | SW 14 G 24 | 10.00 | Overcast | OVC032 | 69.8 | 60.8 | 73% | 29.79 | 0.0 | |||||||
| 06 | 03:55 | SW 14 G 24 | 10.00 | Light Rain | BKN033 OVC041 | 69.8 | 59 | 69% | 29.77 | 0.0 | |||||||
| 06 | 03:35 | S 17 G 25 | 10.00 | Overcast | BKN034 OVC043 | 69.8 | 59 | 69% | 29.77 | 0.0 | |||||||
| 06 | 03:15 | SW 14 G 21 | 10.00 | Overcast | OVC034 | 69.8 | 57.2 | 64% | 29.77 | 0.0 | |||||||
| 06 | 02:55 | SW 14 G 21 | 10.00 | Overcast | OVC037 | 69.8 | 57.2 | 64% | 29.76 | 0.0 | |||||||
| 06 | 02:35 | S 15 | 10.00 | Overcast | OVC037 | 69.8 | 57.2 | 64% | 29.76 | 0.0 | |||||||
| 06 | 02:15 | S 16 G 22 | 10.00 | Overcast | BKN038 OVC048 | 69.8 | 57.2 | 64% | 29.76 | 0.0 | |||||||
| 06 | 01:55 | S 13 G 18 | 10.00 | Overcast | BKN040 OVC049 | 69.8 | 55.4 | 60% | 29.77 | 0.0 | |||||||
| 06 | 01:35 | S 13 | 10.00 | Overcast | BKN039 OVC044 | 69.8 | 55.4 | 60% | 29.78 | 0.0 | |||||||
| 06 | 01:15 | S 12 G 20 | 10.00 | Overcast | BKN042 BKN049 OVC055 | 69.8 | 55.4 | 60% | 29.79 | 0.0 | |||||||
| 06 | 00:55 | S 14 | 10.00 | Overcast | BKN045 OVC055 | 69.8 | 53.6 | 57% | 29.79 | 0.0 | |||||||
| 06 | 00:35 | S 14 G 22 | 10.00 | Overcast | BKN044 OVC050 | 69.8 | 53.6 | 57% | 29.8 | 0.0 | |||||||
| 06 | 00:15 | S 14 | 10.00 | Overcast | BKN044 BKN055 OVC065 | 69.8 | 53.6 | 57% | 29.81 | 0.0 | |||||||
| 05 | 23:55 | S 13 G 22 | 10.00 | Overcast | BKN045 OVC050 | 69.8 | 53.6 | 57% | 29.81 | 0.0 | |||||||
| 05 | 23:35 | S 15 G 22 | 10.00 | Overcast | BKN044 OVC055 | 69.8 | 53.6 | 57% | 29.81 | 0.0 | |||||||
| 05 | 23:15 | S 12 | 10.00 | Overcast | OVC045 | 69.8 | 53.6 | 57% | 29.82 | 0.0 | |||||||
| 05 | 22:55 | S 12 G 18 | 10.00 | Overcast | OVC044 | 69.8 | 53.6 | 57% | 29.82 | 0.0 | |||||||
| 05 | 22:35 | S 13 G 18 | 10.00 | Overcast | BKN043 BKN050 OVC055 | 69.8 | 53.6 | 57% | 29.83 | 0.0 | |||||||
| 05 | 22:15 | S 13 | 10.00 | Mostly Cloudy | FEW042 SCT050 BKN095 | 68 | 53.6 | 60% | 29.82 | 0.0 | |||||||
| 05 | 21:55 | S 15 | 10.00 | Mostly Cloudy | FEW050 BKN095 | 68 | 51.8 | 56% | 29.83 | 0.0 | |||||||
| 05 | 21:35 | S 13 | 10.00 | Overcast | SCT045 BKN050 OVC100 | 68 | 51.8 | 56% | 29.83 | 0.0 | |||||||
| 05 | 21:15 | S 13 | 10.00 | Overcast | OVC045 | 69.8 | 51.8 | 53% | 29.83 | 0.0 | |||||||
| 05 | 20:55 | SW 14 G 22 | 10.00 | Overcast | OVC046 | 69.8 | 50 | 50% | 29.83 | 0.0 | |||||||
| 05 | 20:35 | S 12 | 10.00 | Overcast | OVC047 | 69.8 | 50 | 50% | 29.82 | 0.0 | |||||||
| 05 | 20:15 | S 14 | 10.00 | Overcast | OVC048 | 69.8 | 48.2 | 46% | 29.82 | 0.0 | |||||||
| 05 | 19:55 | S 10 | 10.00 | Overcast | BKN050 OVC100 | 69.8 | 48.2 | 46% | 29.81 | 0.0 | |||||||
| 05 | 19:35 | S 12 | 10.00 | Overcast | FEW055 BKN065 OVC100 | 69.8 | 46.4 | 43% | 29.81 | 0.0 | |||||||
| 05 | 19:15 | S 9 G 16 | 10.00 | Mostly Cloudy | BKN070 | 69.8 | 46.4 | 43% | 29.82 | 0.0 | |||||||
| 05 | 18:55 | S 14 | 10.00 | Mostly Cloudy | BKN070 | 69.8 | 46.4 | 43% | 29.82 | 0.0 | |||||||
| 05 | 18:35 | SW 16 G 23 | 10.00 | A Few Clouds | FEW031 | 69.8 | 46.4 | 43% | 29.82 | 0.0 | |||||||
| 05 | 18:15 | S 21 G 28 | 9.00 | Light Rain and Breezy | FEW028 FEW034 SCT047 | 69.8 | 48.2 | 46% | 29.8 | 0.0 | |||||||
| 05 | 17:55 | SW 16 G 26 | 10.00 | A Few Clouds | FEW090 | 71.6 | 46.4 | 41% | 29.85 | 0.0 | |||||||
| 05 | 17:35 | SW 9 | 10.00 | Partly Cloudy | SCT090 | 75.2 | 48.2 | 39% | 77 | 29.85 | 0.0 | ||||||
| 05 | 17:15 | S 12 G 25 | 10.00 | Fair | CLR | 75.2 | 46.4 | 36% | 77 | 29.83 | 0.0 | ||||||
| 05 | 16:55 | S 21 | 10.00 | Fair and Breezy | CLR | 75.2 | 48.2 | 39% | 77 | 29.82 | 0.0 | ||||||
| 05 | 16:35 | SW 18 G 26 | 10.00 | Fair | CLR | 77 | 48.2 | 36% | 78 | 29.82 | 0.0 | ||||||
| 05 | 16:15 | S 14 G 24 | 10.00 | Fair | CLR | 77 | 50 | 39% | 78 | 29.82 | 0.0 | ||||||
| 05 | 15:55 | S 17 G 24 | 10.00 | Fair | CLR | 77 | 48.2 | 36% | 78 | 29.83 | 0.0 | ||||||
| 05 | 15:35 | S 16 G 24 | 10.00 | Fair | CLR | 77 | 48.2 | 36% | 78 | 29.84 | 0.0 | ||||||
| 05 | 15:15 | S 16 | 10.00 | A Few Clouds | FEW110 | 75.2 | 50 | 41% | 78 | 29.84 | 0.0 | ||||||
| 05 | 14:55 | S 16 | 10.00 | Mostly Cloudy | BKN110 | 75.2 | 50 | 41% | 78 | 29.86 | 0.0 | ||||||
| 05 | 14:35 | S 16 | 10.00 | Mostly Cloudy | BKN110 | 73.4 | 50 | 44% | 29.87 | 0.0 | |||||||
| 05 | 14:15 | S 13 | 10.00 | Partly Cloudy | SCT110 | 71.6 | 51.8 | 50% | 29.88 | 0.0 | |||||||
| 05 | 13:55 | SW 12 G 20 | 10.00 | A Few Clouds | FEW100 | 73.4 | 51.8 | 47% | 29.9 | 0.0 | |||||||
| 05 | 13:35 | SW 13 G 21 | 10.00 | Fair | CLR | 71.6 | 51.8 | 50% | 29.89 | 0.0 | |||||||
| 05 | 13:15 | S 14 G 21 | 10.00 | Fair | CLR | 71.6 | 51.8 | 50% | 29.9 | 0.0 | |||||||
| 05 | 12:55 | SW 13 | 10.00 | A Few Clouds | FEW050 | 71.6 | 51.8 | 50% | 29.91 | 0.0 | |||||||
| 05 | 12:35 | SW 15 G 22 | 10.00 | Fair | CLR | 71.6 | 51.8 | 50% | 29.92 | 0.0 | |||||||
| 05 | 12:15 | SW 15 G 23 | 10.00 | Fair | CLR | 71.6 | 51.8 | 50% | 29.93 | 0.0 | |||||||
| 05 | 11:55 | SW 16 | 10.00 | A Few Clouds | FEW050 | 71.6 | 53.6 | 53% | 29.94 | 0.0 | |||||||
| 05 | 11:35 | SW 14 G 20 | 10.00 | Fair | CLR | 71.6 | 53.6 | 53% | 29.95 | 0.0 | |||||||
| 05 | 11:15 | SW 15 | 10.00 | Fair | CLR | 71.6 | 53.6 | 53% | 29.96 | 0.0 | |||||||
| 05 | 10:55 | SW 14 G 22 | 10.00 | Fair | CLR | 71.6 | 55.4 | 57% | 29.95 | 0.0 | |||||||
| 05 | 10:35 | SW 10 G 18 | 10.00 | Fair | CLR | 69.8 | 53.6 | 57% | 29.95 | 0.0 | |||||||
| 05 | 10:15 | SW 14 | 10.00 | A Few Clouds | FEW060 | 68 | 53.6 | 60% | 29.94 | 0.0 | |||||||
| 05 | 09:55 | SW 12 G 20 | 10.00 | A Few Clouds | FEW060 | 68 | 53.6 | 60% | 29.95 | 0.0 | |||||||
| 05 | 09:35 | SW 13 | 10.00 | Partly Cloudy | SCT060 | 68 | 53.6 | 60% | 29.94 | 0.0 | |||||||
| 05 | 09:15 | SW 13 | 10.00 | Partly Cloudy | SCT060 | 66.2 | 51.8 | 60% | 29.93 | 0.0 | |||||||
| 05 | 08:55 | S 14 | 10.00 | Fair | CLR | 66.2 | 51.8 | 60% | 29.93 | 0.0 | |||||||
| 05 | 08:35 | S 9 | 10.00 | Fair | CLR | 66.2 | 51.8 | 60% | 29.93 | 0.0 | |||||||
| 05 | 08:15 | S 5 | 10.00 | Fair | CLR | 64.4 | 53.6 | 68% | 29.93 | 0.0 | |||||||
| 05 | 07:55 | S 7 | 10.00 | Fair | CLR | 62.6 | 51.8 | 68% | 29.94 | 0.0 | |||||||
| 05 | 07:35 | S 7 | 10.00 | Fair | CLR | 62.6 | 51.8 | 68% | 29.94 | 0.0 | |||||||
| 05 | 07:15 | S 5 | 10.00 | Fair | CLR | 60.8 | 51.8 | 72% | 29.93 | 0.0 | |||||||
| 05 | 06:55 | S 6 | 10.00 | Fair | CLR | 59 | 51.8 | 77% | 29.92 | 0.0 | |||||||
| 05 | 06:35 | S 7 | 10.00 | Fair | CLR | 59 | 50 | 72% | 29.92 | 0.0 | |||||||
| 05 | 06:15 | S 5 | 10.00 | Fair | CLR | 55.4 | 50 | 82% | 29.91 | 0.0 | |||||||
| 05 | 05:55 | S 5 | 10.00 | Fair | CLR | 55.4 | 50 | 82% | 29.9 | 0.0 | |||||||
| 05 | 05:35 | S 5 | 10.00 | Fair | CLR | 51.8 | 50 | 94% | 29.89 | 0.0 | |||||||
| 05 | 05:15 | S 5 | 10.00 | Fair | CLR | 55.4 | 50 | 82% | 29.89 | 0.0 | |||||||
| 05 | 04:55 | S 6 | 10.00 | Fair | CLR | 55.4 | 50 | 82% | 29.88 | 0.0 | |||||||
| 05 | 04:35 | S 5 | 10.00 | Fair | CLR | 51.8 | 50 | 94% | 29.89 | 0.0 | |||||||
| 05 | 04:15 | S 5 | 10.00 | Fair | CLR | 53.6 | 50 | 88% | 29.89 | 0.0 | |||||||
| 05 | 03:55 | S 3 | 10.00 | Fair | CLR | 53.6 | 50 | 88% | 29.89 | 0.0 | |||||||
| 05 | 03:35 | Calm | 10.00 | Fair | CLR | 50 | 50 | 100% | 29.89 | 0.0 | |||||||
| 05 | 03:15 | S 5 | 10.00 | Fair | CLR | 53.6 | 50 | 88% | 29.89 | 0.0 | |||||||
| 05 | 02:55 | S 5 | 10.00 | Fair | CLR | 57.2 | 51.8 | 82% | 29.89 | 0.0 | |||||||
| 05 | 02:35 | S 6 | 10.00 | Fair | CLR | 48.2 | 48.2 | 100% | 46 | 29.88 | 0.0 | ||||||
| 05 | 02:15 | S 5 | 10.00 | Fair | CLR | 48.2 | 48.2 | 100% | 47 | 29.89 | 0.0 | ||||||
| 05 | 01:55 | Calm | 10.00 | Fair | CLR | 48.2 | 48.2 | 100% | 29.89 | 0.0 | |||||||
| 05 | 01:35 | Calm | 10.00 | Fair | CLR | 50 | 50 | 100% | 29.9 | 0.0 | |||||||
| 05 | 01:15 | S 5 | 10.00 | Fair | CLR | 51.8 | 50 | 94% | 29.9 | 0.0 | |||||||
| 05 | 00:55 | S 5 | 10.00 | Fair | CLR | 53.6 | 50 | 88% | 29.9 | 0.0 | |||||||
| 05 | 00:35 | S 6 | 10.00 | Fair | CLR | 55.4 | 50 | 82% | 29.9 | 0.0 | |||||||
| 05 | 00:15 | S 7 | 10.00 | Fair | CLR | 59 | 48.2 | 68% | 29.9 | 0.0 | |||||||
| 04 | 23:55 | S 7 | 10.00 | Fair | CLR | 60.8 | 48.2 | 63% | 29.9 | 0.0 | |||||||
| 04 | 23:35 | S 9 | 10.00 | Fair | CLR | 62.6 | 48.2 | 60% | 29.89 | 0.0 | |||||||
| 04 | 23:15 | S 7 | 10.00 | Fair | CLR | 62.6 | 48.2 | 60% | 29.89 | 0.0 | |||||||
| 04 | 22:55 | S 10 | 10.00 | Fair | CLR | 64.4 | 48.2 | 56% | 29.89 | 0.0 | |||||||
| 04 | 22:35 | S 9 | 10.00 | Fair | CLR | 64.4 | 48.2 | 56% | 29.89 | 0.0 | |||||||
| 04 | 22:15 | S 9 | 10.00 | Fair | CLR | 64.4 | 48.2 | 56% | 29.89 | 0.0 | |||||||
| 04 | 21:55 | S 9 | 10.00 | Fair | CLR | 64.4 | 48.2 | 56% | 29.89 | 0.0 | |||||||
| 04 | 21:35 | S 10 | 10.00 | Fair | CLR | 64.4 | 50 | 60% | 29.89 | 0.0 | |||||||
| 04 | 21:15 | S 8 | 10.00 | Fair | CLR | 64.4 | 50 | 60% | 29.89 | 0.0 | |||||||
| 04 | 20:55 | S 7 | 10.00 | A Few Clouds | FEW070 | 64.4 | 48.2 | 56% | 29.89 | 0.0 | |||||||
| 04 | 20:35 | S 7 | 10.00 | Fair | CLR | 64.4 | 48.2 | 56% | 29.89 | 0.0 | |||||||
| 04 | 20:15 | SW 6 | 10.00 | Fair | CLR | 66.2 | 48.2 | 52% | 29.88 | 0.0 | |||||||
| 04 | 19:55 | SW 7 G 13 | 10.00 | Fair | CLR | 69.8 | 48.2 | 46% | 29.88 | 0.0 | |||||||
| 04 | 19:35 | SW 6 | 10.00 | Fair | CLR | 69.8 | 48.2 | 46% | 29.88 | 0.0 | |||||||
| 04 | 19:15 | SW 8 | 10.00 | Fair | CLR | 71.6 | 48.2 | 44% | 29.87 | 0.0 | |||||||
| 04 | 18:55 | SW 9 | 10.00 | Fair | CLR | 73.4 | 48.2 | 41% | 29.87 | 0.0 | |||||||
| 04 | 18:35 | SW 6 G 14 | 10.00 | Fair | CLR | 75.2 | 48.2 | 39% | 77 | 29.87 | 0.0 | ||||||
| 04 | 18:15 | SW 7 G 20 | 10.00 | Fair | CLR | 75.2 | 48.2 | 39% | 77 | 29.88 | 0.0 | ||||||
| 04 | 17:55 | SW 13 G 20 | 10.00 | Fair | CLR | 75.2 | 48.2 | 39% | 77 | 29.88 | 0.0 | ||||||
| 04 | 17:35 | SW 16 G 24 | 10.00 | Fair | CLR | 75.2 | 48.2 | 39% | 77 | 29.88 | 0.0 | ||||||
| 04 | 17:15 | S 20 | 10.00 | Fair | CLR | 77 | 48.2 | 36% | 78 | 29.88 | 0.0 | ||||||
| 04 | 16:55 | SW 9 G 21 | 10.00 | Fair | CLR | 77 | 50 | 39% | 78 | 29.87 | 0.0 | ||||||
| 04 | 16:35 | S 14 G 20 | 10.00 | Fair | CLR | 77 | 50 | 39% | 78 | 29.87 | 0.0 | ||||||
| 04 | 16:15 | SW 14 G 20 | 10.00 | Fair | CLR | 77 | 50 | 39% | 78 | 29.87 | 0.0 | ||||||
| Date | Time (cdt) | Wind (mph) | Vis. (mi.) | Weather | Sky Cond. | Air | Dwpt | Max. | Min. | Relative Humidity | Wind Chill (°F) | Heat Index (°F) | altimeter (in) | sea level (mb) | 1 hr | 3 hr | 6 hr |
| 6 hour | |||||||||||||||||
| Temperature (ºF) | Pressure | Precipitation (in) | |||||||||||||||